Time;durP1;ratioP1;P1;durP2;ratioP2;P2;SDS_P1;SDS_P2;PMS_P1;PMS_P2;Temp;Humidity;BMP_temperature;BMP_pressure;BME280_temperature;BME280_humidity;BME280_pressure;Samples;Min_cycle;Max_cycle;Signal;HPM_P1;HPM_P2
2020/12/06 00:00:33;;;;;;;4.20;2.37;;;0.10;99.90;;;;;;4985271;28;20215;-94
2020/12/06 00:02:59;;;;;;;4.33;3.27;;;0.20;99.90;;;;;;4977600;28;20695;-91
2020/12/06 00:05:25;;;;;;;4.47;3.53;;;0.20;99.90;;;;;;4984560;28;20867;-91
2020/12/06 00:07:50;;;;;;;3.40;2.80;;;0.20;99.90;;;;;;4968857;28;20223;-92
2020/12/06 00:10:19;;;;;;;4.43;3.60;;;0.20;99.90;;;;;;4985224;28;20254;-91
2020/12/06 00:12:47;;;;;;;4.10;3.70;;;0.30;99.90;;;;;;4987869;28;20206;-92
2020/12/06 00:15:13;;;;;;;4.43;2.93;;;0.30;99.90;;;;;;4970189;28;20211;-92
2020/12/06 00:17:39;;;;;;;4.20;2.93;;;0.30;99.90;;;;;;4967983;28;20249;-93
2020/12/06 00:20:10;;;;;;;4.90;4.50;;;0.30;99.90;;;;;;4982311;28;20219;-90
2020/12/06 00:22:36;;;;;;;4.73;2.83;;;0.40;99.90;;;;;;4986648;28;20763;-93
2020/12/06 00:25:04;;;;;;;6.03;4.07;;;0.40;99.90;;;;;;4969959;28;20198;-92
2020/12/06 00:27:34;;;;;;;5.20;3.00;;;0.30;99.90;;;;;;4988182;28;20211;-92
2020/12/06 00:30:03;;;;;;;4.57;4.17;;;0.30;99.90;;;;;;4985085;28;20278;-92
2020/12/06 00:32:29;;;;;;;5.23;4.03;;;0.40;99.90;;;;;;5003281;28;20226;-92
2020/12/06 00:34:57;;;;;;;6.00;3.73;;;0.40;99.90;;;;;;4986388;28;20219;-92
2020/12/06 00:37:23;;;;;;;4.97;4.53;;;0.30;99.90;;;;;;4986934;28;20245;-91
2020/12/06 00:39:52;;;;;;;3.27;2.97;;;0.20;99.90;;;;;;4974841;28;20194;-92
2020/12/06 00:42:18;;;;;;;4.70;4.33;;;0.20;99.90;;;;;;4988926;28;21009;-92
2020/12/06 00:44:43;;;;;;;5.27;4.80;;;0.20;99.90;;;;;;4988417;28;20885;-93
2020/12/06 00:47:09;;;;;;;3.57;3.27;;;0.30;99.90;;;;;;4987676;28;20624;-92
2020/12/06 00:49:35;;;;;;;3.40;3.10;;;0.20;99.90;;;;;;5004042;28;20219;-93
2020/12/06 00:52:04;;;;;;;4.80;3.57;;;0.20;99.90;;;;;;4987573;28;20607;-94
2020/12/06 00:54:32;;;;;;;5.63;5.10;;;0.30;99.90;;;;;;4990722;28;20187;-91
2020/12/06 00:57:00;;;;;;;5.13;2.80;;;0.30;99.90;;;;;;4958328;28;20223;-92
2020/12/06 00:59:26;;;;;;;6.40;4.43;;;0.20;99.90;;;;;;4952841;28;20234;-94
2020/12/06 01:01:52;;;;;;;5.43;3.70;;;0.10;99.90;;;;;;5003895;28;20222;-94
2020/12/06 01:04:20;;;;;;;4.80;4.37;;;0.00;99.90;;;;;;4977616;28;20387;-93
2020/12/06 01:06:46;;;;;;;4.03;2.87;;;-0.10;99.90;;;;;;5005756;28;20247;-93
2020/12/06 01:09:14;;;;;;;4.77;4.47;;;-0.20;99.90;;;;;;4964856;28;20219;-94
2020/12/06 01:11:40;;;;;;;4.90;4.13;;;-0.30;99.90;;;;;;4971670;28;20232;-92
2020/12/06 01:14:06;;;;;;;3.77;3.53;;;-0.30;99.90;;;;;;4972920;28;20232;-93
2020/12/06 01:16:32;;;;;;;4.97;4.27;;;-0.40;99.90;;;;;;4975740;28;20224;-92
2020/12/06 01:19:03;;;;;;;2.57;2.43;;;-0.40;99.90;;;;;;4994940;28;20191;-93
2020/12/06 01:21:29;;;;;;;3.33;3.03;;;-0.40;99.90;;;;;;4978108;28;20267;-91
2020/12/06 01:23:55;;;;;;;4.70;4.33;;;-0.30;99.90;;;;;;4976633;28;20333;-92
2020/12/06 01:26:24;;;;;;;5.13;4.60;;;-0.40;99.90;;;;;;4985615;28;20712;-93
2020/12/06 01:28:57;;;;;;;8.20;3.80;;;-0.40;99.90;;;;;;4977056;28;20229;-92
2020/12/06 01:31:30;;;;;;;6.90;3.83;;;-0.40;99.90;;;;;;4962572;28;20660;-92
2020/12/06 01:33:55;;;;;;;5.57;4.07;;;-0.30;99.90;;;;;;4996387;28;20732;-93
2020/12/06 01:36:24;;;;;;;4.87;4.37;;;-0.30;99.90;;;;;;4994644;28;20228;-92
2020/12/06 01:38:50;;;;;;;11.50;3.90;;;-0.30;99.90;;;;;;4992691;28;20234;-91
2020/12/06 01:41:18;;;;;;;4.53;4.13;;;-0.30;99.90;;;;;;4993534;28;20227;-92
2020/12/06 01:43:55;;;;;;;4.17;3.43;;;-0.40;99.90;;;;;;4994168;28;20739;-94
2020/12/06 01:46:22;;;;;;;5.47;4.87;;;-0.40;99.90;;;;;;4984776;28;20246;-92
2020/12/06 01:48:49;;;;;;;7.10;3.93;;;-0.30;99.90;;;;;;4986696;28;20198;-93
2020/12/06 01:51:16;;;;;;;6.27;4.20;;;-0.40;99.90;;;;;;4965938;28;20228;-91
2020/12/06 01:53:42;;;;;;;3.30;3.10;;;-0.40;99.90;;;;;;4978379;28;20270;-91
2020/12/06 01:56:08;;;;;;;5.63;4.93;;;-0.50;99.90;;;;;;4967854;28;20697;-92
2020/12/06 01:58:34;;;;;;;4.07;3.40;;;-0.60;99.90;;;;;;4983771;28;20230;-90
2020/12/06 02:01:00;;;;;;;4.73;4.07;;;-0.60;99.90;;;;;;4983942;28;20203;-91
2020/12/06 02:03:26;;;;;;;4.17;3.37;;;-0.70;99.90;;;;;;4969529;28;20275;-91
2020/12/06 02:05:52;;;;;;;4.00;3.63;;;-0.80;99.90;;;;;;4967067;28;20223;-91
2020/12/06 02:08:18;;;;;;;3.83;3.53;;;-0.70;99.90;;;;;;4956408;28;20688;-92
2020/12/06 02:10:44;;;;;;;4.40;3.53;;;-0.60;99.90;;;;;;4966376;28;20227;-91
2020/12/06 02:13:09;;;;;;;3.43;3.17;;;-0.50;99.90;;;;;;4967725;28;20226;-93
2020/12/06 02:15:37;;;;;;;7.23;3.03;;;-0.50;99.90;;;;;;4986750;28;20310;-93
2020/12/06 02:18:03;;;;;;;6.77;4.23;;;-0.50;99.90;;;;;;4962787;28;20608;-92
2020/12/06 02:20:32;;;;;;;5.07;3.13;;;-0.50;99.90;;;;;;4973334;28;20224;-94
2020/12/06 02:22:58;;;;;;;4.23;3.47;;;-0.50;99.90;;;;;;4974456;28;20759;-93
2020/12/06 02:25:26;;;;;;;4.07;3.63;;;-0.40;99.90;;;;;;4976337;28;20230;-93
2020/12/06 02:27:54;;;;;;;4.57;4.07;;;-0.50;99.90;;;;;;4987990;28;20554;-92
2020/12/06 02:30:21;;;;;;;3.77;3.47;;;-0.50;99.90;;;;;;4978099;28;20303;-92
2020/12/06 02:32:52;;;;;;;5.23;3.93;;;-0.50;99.90;;;;;;4976300;28;20227;-92
2020/12/06 02:35:20;;;;;;;4.80;4.43;;;-0.50;99.90;;;;;;4956562;28;20216;-94
2020/12/06 02:37:51;;;;;;;7.70;4.47;;;-0.50;99.90;;;;;;4986266;28;20318;-93
2020/12/06 02:40:17;;;;;;;4.77;4.33;;;-0.40;99.90;;;;;;4982456;28;20777;-94
2020/12/06 02:42:54;;;;;;;3.17;2.97;;;-0.40;99.90;;;;;;4968220;28;20176;-92
2020/12/06 02:45:23;;;;;;;3.90;3.60;;;-0.40;99.90;;;;;;4966124;28;20280;-92
2020/12/06 02:47:49;;;;;;;4.57;3.37;;;-0.40;99.90;;;;;;4978304;28;20239;-94
2020/12/06 02:50:20;;;;;;;3.93;3.60;;;-0.40;99.90;;;;;;4986979;28;20219;-93
2020/12/06 02:52:51;;;;;;;5.90;4.87;;;-0.40;99.90;;;;;;4989414;28;20338;-93
2020/12/06 02:55:19;;;;;;;5.80;3.40;;;-0.40;99.90;;;;;;4970915;28;20430;-92
2020/12/06 02:57:45;;;;;;;6.47;4.77;;;-0.30;99.90;;;;;;4991287;28;20196;-93
2020/12/06 03:00:11;;;;;;;9.10;4.50;;;-0.30;99.90;;;;;;4977132;28;20235;-94
2020/12/06 03:02:39;;;;;;;6.50;3.70;;;-0.20;99.90;;;;;;4970226;28;20227;-91
2020/12/06 03:05:05;;;;;;;6.30;4.00;;;-0.20;99.90;;;;;;4985879;28;20342;-92
2020/12/06 03:07:35;;;;;;;7.40;4.57;;;-0.30;99.90;;;;;;4985045;28;20297;-95
2020/12/06 03:10:06;;;;;;;5.60;5.10;;;-0.30;99.90;;;;;;4968666;28;20309;-93
2020/12/06 03:12:36;;;;;;;7.87;4.23;;;-0.20;99.90;;;;;;4988009;28;20192;-92
2020/12/06 03:15:03;;;;;;;4.87;4.37;;;-0.30;99.90;;;;;;4970255;28;21013;-92
2020/12/06 03:17:29;;;;;;;5.07;4.37;;;-0.30;99.90;;;;;;4941597;28;20217;-94
2020/12/06 03:19:55;;;;;;;3.70;3.50;;;-0.20;99.90;;;;;;4958949;28;20723;-92
2020/12/06 03:22:21;;;;;;;6.47;5.73;;;-0.30;99.90;;;;;;4971132;28;20227;-92
2020/12/06 03:24:47;;;;;;;4.90;4.27;;;-0.30;99.90;;;;;;4973235;28;20642;-93
2020/12/06 03:27:12;;;;;;;5.30;4.87;;;-0.20;99.90;;;;;;4971038;28;20270;-92
2020/12/06 03:29:38;;;;;;;3.93;3.63;;;-0.20;99.90;;;;;;4989873;28;20715;-94
2020/12/06 03:32:07;;;;;;;2.93;2.73;;;-0.20;99.90;;;;;;4964122;28;20800;-92
2020/12/06 03:34:33;;;;;;;6.50;4.23;;;-0.10;99.90;;;;;;4989583;28;20224;-92
2020/12/06 03:36:59;;;;;;;7.30;4.23;;;-0.10;99.90;;;;;;4973126;28;20192;-92
2020/12/06 03:39:25;;;;;;;6.83;4.63;;;-0.10;99.90;;;;;;4989717;28;20189;-92
2020/12/06 03:41:50;;;;;;;4.13;3.27;;;0.00;99.90;;;;;;4966361;28;20224;-93
2020/12/06 03:44:16;;;;;;;5.13;4.00;;;0.00;99.90;;;;;;4948760;28;20216;-92
2020/12/06 03:46:42;;;;;;;5.20;4.70;;;-0.10;99.90;;;;;;4978803;28;20755;-92
2020/12/06 03:49:08;;;;;;;5.20;4.03;;;-0.10;99.90;;;;;;4978511;28;21055;-93
2020/12/06 03:51:36;;;;;;;4.30;3.63;;;-0.10;99.90;;;;;;4983612;28;20180;-91
2020/12/06 03:54:02;;;;;;;5.70;3.97;;;-0.20;99.90;;;;;;4983932;28;20266;-91
2020/12/06 03:56:27;;;;;;;4.03;3.53;;;-0.20;99.90;;;;;;4989128;28;20227;-92
2020/12/06 03:58:55;;;;;;;4.17;3.87;;;-0.20;99.90;;;;;;4990316;28;20231;-91
2020/12/06 04:01:21;;;;;;;5.10;3.77;;;-0.10;99.90;;;;;;4971827;28;22177;-91
2020/12/06 04:03:47;;;;;;;5.70;5.30;;;-0.20;99.90;;;;;;4990619;28;20223;-92
2020/12/06 04:06:13;;;;;;;4.17;3.77;;;-0.40;99.90;;;;;;4987855;28;20234;-92
2020/12/06 04:08:39;;;;;;;3.53;3.23;;;-0.50;99.90;;;;;;4972475;28;20280;-93
2020/12/06 04:11:05;;;;;;;5.97;3.87;;;-0.40;99.90;;;;;;4982733;28;20720;-93
2020/12/06 04:13:32;;;;;;;7.07;4.20;;;-0.30;99.90;;;;;;4982168;28;20266;-92
2020/12/06 04:15:58;;;;;;;4.67;4.27;;;-0.30;99.90;;;;;;4981758;28;20250;-90
2020/12/06 04:18:26;;;;;;;2.67;2.47;;;-0.30;99.90;;;;;;4983762;28;20207;-93
2020/12/06 04:20:52;;;;;;;4.27;3.83;;;-0.30;99.90;;;;;;4982582;28;20216;-93
2020/12/06 04:23:20;;;;;;;4.67;3.60;;;-0.20;99.90;;;;;;4966774;28;20752;-92
2020/12/06 04:25:46;;;;;;;15.90;5.33;;;-0.20;99.90;;;;;;4983928;28;20700;-92
2020/12/06 04:28:12;;;;;;;6.60;5.63;;;-0.20;99.90;;;;;;4983609;28;20187;-93
2020/12/06 04:30:40;;;;;;;2.80;2.60;;;-0.20;99.90;;;;;;4985274;28;20195;-93
2020/12/06 04:33:08;;;;;;;4.17;3.07;;;-0.20;99.90;;;;;;4949501;28;20227;-92
2020/12/06 04:35:36;;;;;;;3.50;3.30;;;-0.30;99.90;;;;;;4967126;28;20219;-93
2020/12/06 04:38:05;;;;;;;6.47;3.63;;;-0.30;99.90;;;;;;4983248;28;20220;-93
2020/12/06 04:40:31;;;;;;;4.47;4.03;;;-0.30;99.90;;;;;;4983442;28;20220;-93
2020/12/06 04:42:58;;;;;;;4.90;4.50;;;-0.30;99.90;;;;;;4985943;28;20184;-92
2020/12/06 04:45:24;;;;;;;4.20;3.90;;;-0.20;99.90;;;;;;4957941;28;20216;-93
2020/12/06 04:47:56;;;;;;;5.43;3.87;;;0.00;99.90;;;;;;4982957;28;20738;-92
2020/12/06 04:50:45;;;;;;;3.77;3.47;;;0.10;99.90;;;;;;4984200;28;20236;-95
2020/12/06 04:53:17;;;;;;;6.70;4.13;;;0.20;99.90;;;;;;4984721;28;20257;-94
2020/12/06 04:55:46;;;;;;;4.53;3.90;;;0.20;99.90;;;;;;4984462;28;20299;-93
2020/12/06 04:58:17;;;;;;;7.23;4.47;;;0.30;99.90;;;;;;4982027;28;20298;-91
2020/12/06 05:00:44;;;;;;;4.03;3.50;;;0.30;99.90;;;;;;4982848;28;20184;-92
2020/12/06 05:03:11;;;;;;;3.53;3.33;;;0.30;99.90;;;;;;4986899;28;20220;-92
2020/12/06 05:05:39;;;;;;;5.20;4.27;;;0.30;99.90;;;;;;4952338;28;20223;-92
2020/12/06 05:08:10;;;;;;;2.87;2.57;;;0.30;99.90;;;;;;4985320;28;20239;-93
2020/12/06 05:10:41;;;;;;;3.47;3.17;;;0.40;99.90;;;;;;4984264;28;20685;-92
2020/12/06 05:13:09;;;;;;;4.17;3.77;;;0.40;99.90;;;;;;5001056;28;20203;-91
2020/12/06 05:15:35;;;;;;;5.23;3.10;;;0.50;99.90;;;;;;4974345;28;20186;-90
2020/12/06 05:18:02;;;;;;;4.73;3.60;;;0.30;99.90;;;;;;4989604;28;20220;-91
2020/12/06 05:20:29;;;;;;;7.27;3.63;;;0.20;99.90;;;;;;4974414;28;20282;-92
2020/12/06 05:22:55;;;;;;;4.33;3.60;;;0.20;99.90;;;;;;4990138;28;20236;-93
2020/12/06 05:25:21;;;;;;;3.27;3.07;;;0.20;99.90;;;;;;4990208;28;20274;-91
2020/12/06 05:27:47;;;;;;;5.90;3.10;;;0.20;99.90;;;;;;4975654;28;20212;-92
2020/12/06 05:30:14;;;;;;;3.87;3.57;;;0.20;99.90;;;;;;4974739;28;20220;-91
2020/12/06 05:32:40;;;;;;;6.33;3.43;;;0.40;99.90;;;;;;4990244;28;20266;-92
2020/12/06 05:35:07;;;;;;;5.10;4.37;;;0.40;99.90;;;;;;4991194;28;20224;-91
2020/12/06 05:37:36;;;;;;;4.80;3.30;;;0.50;99.90;;;;;;4976122;28;20218;-91
2020/12/06 05:40:05;;;;;;;9.23;5.10;;;0.50;99.90;;;;;;4986954;28;20199;-91
2020/12/06 05:42:39;;;;;;;6.77;3.63;;;0.50;99.90;;;;;;4989373;28;20191;-91
2020/12/06 05:45:05;;;;;;;5.73;5.20;;;0.50;99.90;;;;;;4987494;28;20218;-93
2020/12/06 05:47:33;;;;;;;6.53;5.87;;;0.50;99.90;;;;;;4986541;28;20717;-92
2020/12/06 05:49:59;;;;;;;6.27;4.93;;;0.50;99.90;;;;;;4986714;28;20263;-92
2020/12/06 05:52:28;;;;;;;7.67;3.43;;;0.50;99.90;;;;;;4989240;28;20248;-92
2020/12/06 05:54:56;;;;;;;5.17;4.03;;;0.50;99.90;;;;;;4990207;28;20188;-92
2020/12/06 05:57:33;;;;;;;4.37;4.03;;;0.50;99.90;;;;;;4980866;28;20278;-92
2020/12/06 06:00:01;;;;;;;4.50;3.63;;;0.50;99.90;;;;;;4982639;28;20310;-92
2020/12/06 06:02:27;;;;;;;10.13;5.57;;;0.50;99.90;;;;;;4992999;28;20695;-92
2020/12/06 06:05:06;;;;;;;4.17;3.83;;;0.50;99.90;;;;;;4993569;28;20584;-92
2020/12/06 06:07:35;;;;;;;5.37;4.30;;;0.60;99.90;;;;;;4993557;28;20772;-92
2020/12/06 06:10:05;;;;;;;5.30;4.57;;;0.60;99.90;;;;;;4995388;28;20239;-92
2020/12/06 06:12:41;;;;;;;4.30;3.87;;;0.50;99.90;;;;;;5016754;28;20199;-92
2020/12/06 06:15:07;;;;;;;10.00;4.70;;;0.50;99.90;;;;;;4997009;28;20242;-91
2020/12/06 06:17:32;;;;;;;14.37;4.20;;;0.60;99.90;;;;;;4982020;28;20253;-93
2020/12/06 06:20:01;;;;;;;5.40;5.00;;;0.60;99.90;;;;;;4952390;28;20233;-93
2020/12/06 06:22:40;;;;;;;13.67;5.33;;;0.60;99.90;;;;;;4979032;28;20703;-92
2020/12/06 06:25:08;;;;;;;4.50;4.13;;;0.70;99.90;;;;;;4994357;28;20656;-92
2020/12/06 06:27:36;;;;;;;3.77;3.20;;;0.70;99.90;;;;;;4961797;28;20208;-93
2020/12/06 06:30:10;;;;;;;6.40;5.80;;;0.70;99.90;;;;;;4974165;28;20215;-93
2020/12/06 06:32:39;;;;;;;6.33;5.73;;;0.70;99.90;;;;;;4983938;28;20211;-93
2020/12/06 06:35:09;;;;;;;4.80;4.33;;;0.70;99.90;;;;;;4988333;28;20219;-92
2020/12/06 06:37:36;;;;;;;7.33;5.30;;;0.70;99.90;;;;;;4988098;28;20227;-95
2020/12/06 06:40:09;;;;;;;6.70;5.03;;;0.70;99.90;;;;;;4989023;28;20234;-92
2020/12/06 06:42:37;;;;;;;5.17;4.47;;;0.60;99.90;;;;;;4989891;28;20186;-93
2020/12/06 06:45:09;;;;;;;6.13;4.90;;;0.40;99.90;;;;;;5007122;28;20707;-92
2020/12/06 06:47:37;;;;;;;7.93;4.80;;;0.30;99.90;;;;;;5003257;28;20232;-91
2020/12/06 06:50:05;;;;;;;5.70;4.73;;;0.40;99.90;;;;;;4987952;28;20224;-92
2020/12/06 06:52:33;;;;;;;10.33;5.60;;;0.70;99.90;;;;;;5005933;28;20223;-93
2020/12/06 06:55:02;;;;;;;4.70;4.30;;;0.80;99.90;;;;;;4990016;28;20880;-93
2020/12/06 06:57:30;;;;;;;5.93;5.37;;;0.80;99.90;;;;;;4990360;28;20243;-92
2020/12/06 06:59:57;;;;;;;7.67;6.90;;;0.90;99.90;;;;;;4988409;28;20224;-94
2020/12/06 07:02:39;;;;;;;7.47;5.33;;;0.90;99.90;;;;;;4989533;28;20223;-92
2020/12/06 07:05:14;;;;;;;6.03;4.83;;;0.90;99.90;;;;;;4965997;28;20212;-91
2020/12/06 07:07:50;;;;;;;5.97;4.90;;;0.90;99.90;;;;;;4978152;28;20231;-95
2020/12/06 07:10:24;;;;;;;4.47;3.03;;;0.90;99.90;;;;;;4961839;28;20538;-92
2020/12/06 07:12:52;;;;;;;8.37;4.97;;;1.00;99.90;;;;;;4981891;28;20205;-89
2020/12/06 07:15:23;;;;;;;10.03;5.60;;;1.10;99.90;;;;;;4982505;28;20219;-93
2020/12/06 07:17:52;;;;;;;7.67;5.07;;;1.10;99.90;;;;;;4978614;28;21409;-93
2020/12/06 07:20:19;;;;;;;5.00;4.33;;;1.20;99.90;;;;;;4974997;28;20219;-93
2020/12/06 07:22:46;;;;;;;7.23;5.40;;;1.20;99.90;;;;;;4986637;28;20227;-94
2020/12/06 07:25:13;;;;;;;5.70;5.10;;;1.30;99.90;;;;;;5004229;28;20225;-90
2020/12/06 07:27:40;;;;;;;5.93;5.17;;;1.40;99.90;;;;;;5007009;28;20214;-92
2020/12/06 07:30:19;;;;;;;9.70;5.27;;;1.50;99.90;;;;;;4993096;28;20292;-88
2020/12/06 07:32:46;;;;;;;8.20;4.93;;;1.50;99.90;;;;;;4971350;28;20503;-96
2020/12/06 07:35:14;;;;;;;10.50;4.93;;;1.50;99.90;;;;;;4950555;28;20219;-89
2020/12/06 07:37:40;;;;;;;5.57;5.17;;;1.40;99.90;;;;;;4969267;28;20234;-89
2020/12/06 07:40:08;;;;;;;13.47;5.93;;;1.40;99.90;;;;;;4967281;28;20200;-92
2020/12/06 07:42:35;;;;;;;6.00;5.57;;;1.40;99.90;;;;;;4987159;28;20199;-91
2020/12/06 07:45:05;;;;;;;4.40;4.10;;;1.40;99.90;;;;;;4985270;28;20228;-89
2020/12/06 07:47:31;;;;;;;5.97;4.23;;;1.40;99.90;;;;;;4977812;28;21356;-88
2020/12/06 07:49:59;;;;;;;6.40;5.77;;;1.50;99.90;;;;;;4985713;28;20215;-91
2020/12/06 07:52:32;;;;;;;12.50;5.30;;;1.50;99.90;;;;;;4969099;28;20792;-95
2020/12/06 07:54:59;;;;;;;5.93;3.90;;;1.60;99.90;;;;;;4987388;28;20211;-91
2020/12/06 07:57:34;;;;;;;6.73;6.17;;;1.60;99.90;;;;;;5003907;28;20230;-93
2020/12/06 08:00:03;;;;;;;12.00;7.17;;;1.60;99.90;;;;;;4985088;28;20218;-90
2020/12/06 08:02:33;;;;;;;7.23;5.90;;;1.70;99.90;;;;;;4985481;28;20247;-92
2020/12/06 08:05:00;;;;;;;6.50;5.97;;;1.70;99.90;;;;;;4970382;28;20215;-92
2020/12/06 08:08:01;;;;;;;4.93;4.43;;;1.80;99.90;;;;;;4958552;28;20322;-92
2020/12/06 08:10:28;;;;;;;8.40;6.40;;;1.70;99.90;;;;;;4971500;28;20223;-90
2020/12/06 08:12:55;;;;;;;10.57;5.57;;;1.70;99.90;;;;;;5007788;28;20289;-93
2020/12/06 08:15:29;;;;;;;13.97;7.63;;;1.80;99.90;;;;;;4953293;28;20228;-95
2020/12/06 08:17:55;;;;;;;8.30;7.03;;;1.80;99.90;;;;;;5001301;28;20220;-91
2020/12/06 08:20:24;;;;;;;11.60;7.27;;;1.80;99.90;;;;;;4983932;28;20219;-91
2020/12/06 08:22:55;;;;;;;12.13;6.37;;;1.90;99.90;;;;;;4983715;28;20224;-91
2020/12/06 08:25:23;;;;;;;6.37;5.63;;;1.90;99.90;;;;;;4972162;28;20633;-90
2020/12/06 08:27:50;;;;;;;6.87;6.13;;;1.90;99.90;;;;;;5004552;28;21137;-87
2020/12/06 08:30:17;;;;;;;11.83;7.60;;;1.90;99.90;;;;;;4984780;28;20598;-90
2020/12/06 08:32:53;;;;;;;6.43;4.87;;;2.00;99.90;;;;;;4986926;28;20207;-92
2020/12/06 08:35:19;;;;;;;5.47;4.97;;;2.00;99.90;;;;;;4980546;28;20617;-91
2020/12/06 08:37:45;;;;;;;7.67;5.50;;;2.10;99.90;;;;;;4964813;28;20224;-91
2020/12/06 08:40:12;;;;;;;7.50;4.60;;;2.10;99.90;;;;;;4979330;28;20196;-92
2020/12/06 08:42:38;;;;;;;7.80;6.83;;;2.10;99.90;;;;;;4982664;28;20694;-92
2020/12/06 08:45:05;;;;;;;11.57;7.70;;;2.20;99.90;;;;;;4996707;28;21208;-92
2020/12/06 08:47:44;;;;;;;7.13;6.43;;;2.20;99.90;;;;;;4981455;28;20294;-88
2020/12/06 08:50:16;;;;;;;10.57;5.87;;;2.30;99.90;;;;;;4997278;28;20224;-90
2020/12/06 08:52:43;;;;;;;9.37;5.53;;;2.30;99.90;;;;;;4996817;28;20269;-89
2020/12/06 08:55:25;;;;;;;5.20;3.77;;;2.40;99.90;;;;;;4982882;28;20230;-87
2020/12/06 08:57:53;;;;;;;6.33;5.60;;;2.40;99.90;;;;;;4985210;28;20207;-88
2020/12/06 09:00:19;;;;;;;7.50;6.47;;;2.50;99.90;;;;;;4981912;28;20222;-88
2020/12/06 09:02:45;;;;;;;7.93;6.03;;;2.50;99.90;;;;;;4952376;28;20228;-90
2020/12/06 09:05:11;;;;;;;10.57;6.27;;;2.50;99.90;;;;;;4990281;28;20685;-88
2020/12/06 09:07:42;;;;;;;8.70;5.97;;;2.50;99.90;;;;;;4992185;28;20270;-91
2020/12/06 09:10:08;;;;;;;6.37;5.70;;;2.60;99.90;;;;;;5009958;28;20179;-89
2020/12/06 09:12:36;;;;;;;10.20;6.33;;;2.60;99.90;;;;;;4998062;28;20326;-90
2020/12/06 09:15:04;;;;;;;9.93;5.47;;;2.60;99.90;;;;;;4974949;28;20252;-93
2020/12/06 09:17:30;;;;;;;9.10;6.80;;;2.70;99.90;;;;;;4989062;28;21248;-90
2020/12/06 09:19:55;;;;;;;9.33;8.37;;;2.80;99.90;;;;;;4984274;28;20231;-91
2020/12/06 09:22:21;;;;;;;8.53;7.17;;;2.90;99.90;;;;;;4984866;28;20242;-91
2020/12/06 09:24:47;;;;;;;7.10;6.40;;;2.90;99.90;;;;;;4971573;28;20196;-91
2020/12/06 09:27:13;;;;;;;8.73;5.80;;;2.90;99.90;;;;;;4983423;28;20710;-94
2020/12/06 09:29:39;;;;;;;5.43;4.93;;;3.00;99.90;;;;;;4970072;28;20223;-91
2020/12/06 09:32:05;;;;;;;8.77;4.53;;;3.00;99.90;;;;;;4967601;28;20798;-90
2020/12/06 09:34:30;;;;;;;4.50;4.00;;;3.00;99.90;;;;;;4984411;28;20708;-90
2020/12/06 09:36:56;;;;;;;9.03;6.53;;;3.10;99.90;;;;;;4970866;28;20736;-90
2020/12/06 09:39:22;;;;;;;9.27;5.93;;;3.00;99.90;;;;;;4968480;28;20291;-91
2020/12/06 09:41:48;;;;;;;4.63;4.23;;;3.00;99.90;;;;;;4984787;28;20713;-90
2020/12/06 09:44:14;;;;;;;9.03;5.60;;;2.90;99.90;;;;;;4968482;28;20244;-92
2020/12/06 09:46:39;;;;;;;12.50;6.90;;;2.80;99.90;;;;;;4974589;28;20234;-91
2020/12/06 09:49:05;;;;;;;9.03;6.13;;;2.90;99.90;;;;;;4987329;28;20196;-90
2020/12/06 09:51:31;;;;;;;9.13;6.37;;;3.00;99.90;;;;;;5004088;28;20188;-89
2020/12/06 09:53:57;;;;;;;10.73;8.63;;;3.10;99.90;;;;;;4988067;28;20245;-92
2020/12/06 09:56:27;;;;;;;11.90;5.77;;;3.10;99.90;;;;;;4987824;28;20227;-92
2020/12/06 09:58:53;;;;;;;12.00;8.03;;;3.20;99.90;;;;;;4974637;28;20230;-93
2020/12/06 10:01:19;;;;;;;11.50;8.77;;;3.30;99.90;;;;;;4969175;28;20715;-89
2020/12/06 10:03:45;;;;;;;11.37;7.67;;;3.40;99.90;;;;;;4970288;28;20196;-91
2020/12/06 10:06:10;;;;;;;15.53;8.10;;;3.50;99.90;;;;;;4987155;28;20216;-89
2020/12/06 10:08:36;;;;;;;16.63;7.90;;;3.60;99.90;;;;;;4952025;28;20223;-89
2020/12/06 10:11:02;;;;;;;12.70;5.77;;;3.60;99.90;;;;;;4965590;28;20255;-89
2020/12/06 10:13:28;;;;;;;13.07;7.80;;;3.70;99.90;;;;;;4983563;28;20258;-89
2020/12/06 10:15:54;;;;;;;11.27;7.03;;;3.80;99.90;;;;;;4971494;28;20192;-92
2020/12/06 10:18:19;;;;;;;9.07;7.17;;;3.80;99.90;;;;;;4990760;28;20223;-89
2020/12/06 10:20:45;;;;;;;10.77;6.87;;;3.90;99.90;;;;;;4976865;28;20258;-89
2020/12/06 10:23:11;;;;;;;12.07;8.73;;;4.00;99.90;;;;;;4980975;28;20233;-88
2020/12/06 10:25:37;;;;;;;16.43;8.93;;;4.10;99.90;;;;;;4993615;28;20226;-88
2020/12/06 10:28:02;;;;;;;15.30;7.67;;;4.20;99.90;;;;;;4988265;28;20230;-91
2020/12/06 10:30:28;;;;;;;15.30;8.63;;;4.30;99.90;;;;;;5006008;28;20200;-92
2020/12/06 10:32:54;;;;;;;10.20;7.50;;;4.30;99.90;;;;;;5003203;28;21137;-92
2020/12/06 10:35:20;;;;;;;14.40;9.77;;;4.40;99.90;;;;;;5002924;28;20219;-90
2020/12/06 10:37:46;;;;;;;11.47;8.77;;;4.40;99.90;;;;;;4988609;28;20260;-89
2020/12/06 10:40:11;;;;;;;10.57;6.57;;;4.50;99.90;;;;;;4989216;28;20188;-90
2020/12/06 10:42:37;;;;;;;10.63;8.53;;;4.40;99.90;;;;;;4989643;28;20180;-92
2020/12/06 10:45:04;;;;;;;9.43;6.83;;;4.50;99.90;;;;;;4988689;28;20778;-89
2020/12/06 10:47:29;;;;;;;9.43;7.37;;;4.60;99.90;;;;;;4995448;28;20330;-89
2020/12/06 10:49:55;;;;;;;10.73;5.70;;;4.60;99.90;;;;;;4972015;28;20335;-89
2020/12/06 10:52:21;;;;;;;9.43;6.13;;;4.70;99.90;;;;;;4954493;28;20557;-94
2020/12/06 10:54:51;;;;;;;13.33;9.57;;;4.80;99.90;;;;;;4971711;28;20972;-91
2020/12/06 10:57:17;;;;;;;10.57;8.67;;;4.90;99.90;;;;;;4968534;28;20224;-89
2020/12/06 10:59:43;;;;;;;14.93;9.03;;;5.10;99.90;;;;;;4967600;28;20400;-93
2020/12/06 11:02:09;;;;;;;10.53;7.13;;;5.10;99.90;;;;;;4960131;28;20684;-91
2020/12/06 11:04:34;;;;;;;8.90;8.03;;;5.20;99.90;;;;;;4981881;28;20690;-93
2020/12/06 11:07:00;;;;;;;7.93;7.03;;;5.10;99.90;;;;;;4984507;28;20553;-90
2020/12/06 11:09:27;;;;;;;13.50;8.00;;;5.20;99.90;;;;;;4976928;28;20677;-90
2020/12/06 11:11:52;;;;;;;14.17;8.13;;;5.20;99.90;;;;;;5002497;28;20270;-90
2020/12/06 11:14:19;;;;;;;16.60;8.40;;;5.20;99.90;;;;;;4975814;28;20299;-92
2020/12/06 11:16:45;;;;;;;11.33;7.73;;;5.30;99.90;;;;;;4969636;28;20239;-92
2020/12/06 11:19:11;;;;;;;8.17;6.80;;;5.30;99.90;;;;;;4967192;28;20729;-93
2020/12/06 11:21:36;;;;;;;11.23;8.83;;;5.20;99.90;;;;;;4985939;28;20188;-91
2020/12/06 11:24:02;;;;;;;13.63;7.90;;;5.20;99.90;;;;;;4951847;28;20216;-90
2020/12/06 11:26:28;;;;;;;7.73;6.83;;;5.20;99.90;;;;;;4996142;28;20764;-90
2020/12/06 11:28:54;;;;;;;14.87;8.37;;;5.20;99.90;;;;;;4987396;28;20238;-91
2020/12/06 11:31:20;;;;;;;11.57;6.53;;;5.30;99.90;;;;;;4970283;28;20219;-90
2020/12/06 11:33:45;;;;;;;7.97;5.83;;;5.30;99.90;;;;;;4971835;28;20779;-92
2020/12/06 11:36:11;;;;;;;8.07;6.40;;;5.30;99.90;;;;;;4984339;28;20248;-94
2020/12/06 11:38:38;;;;;;;9.50;8.10;;;5.30;99.90;;;;;;5001211;28;20243;-91
2020/12/06 11:41:04;;;;;;;12.07;7.20;;;5.40;99.90;;;;;;4982806;28;20223;-92
2020/12/06 11:43:31;;;;;;;15.70;7.30;;;5.40;99.90;;;;;;4967526;28;20747;-91
2020/12/06 11:45:56;;;;;;;9.57;7.10;;;5.60;99.90;;;;;;4959718;28;20200;-91
2020/12/06 11:48:22;;;;;;;12.23;6.47;;;5.70;99.90;;;;;;4995741;28;20223;-90
2020/12/06 11:50:48;;;;;;;10.20;8.03;;;5.80;99.90;;;;;;5010837;28;20219;-92
2020/12/06 11:53:14;;;;;;;9.23;7.50;;;5.80;99.90;;;;;;4995466;28;20249;-91
2020/12/06 11:55:40;;;;;;;8.67;5.97;;;5.90;99.90;;;;;;4973942;28;20216;-91
2020/12/06 11:58:07;;;;;;;12.13;6.90;;;6.00;99.90;;;;;;4992353;28;20258;-91
2020/12/06 12:00:32;;;;;;;8.97;7.10;;;6.00;99.90;;;;;;4994245;28;20282;-91
2020/12/06 12:02:58;;;;;;;9.50;6.47;;;6.10;99.90;;;;;;5009753;28;20235;-91
2020/12/06 12:05:24;;;;;;;15.00;6.07;;;6.20;99.90;;;;;;4980474;28;20826;-91
2020/12/06 12:07:50;;;;;;;15.33;8.27;;;6.10;99.90;;;;;;4996851;28;20231;-91
2020/12/06 12:10:16;;;;;;;13.97;7.83;;;6.10;99.90;;;;;;4996694;28;20195;-92
2020/12/06 12:12:47;;;;;;;11.93;7.50;;;6.10;99.90;;;;;;5014593;28;20187;-94
2020/12/06 12:15:13;;;;;;;13.33;6.43;;;6.20;99.90;;;;;;4993395;28;20199;-91
2020/12/06 12:17:39;;;;;;;8.10;5.80;;;6.30;99.90;;;;;;5023961;28;20319;-91
2020/12/06 12:20:06;;;;;;;11.57;8.43;;;6.20;99.90;;;;;;5014400;28;20221;-91
2020/12/06 12:22:32;;;;;;;7.97;5.43;;;6.10;99.90;;;;;;4994313;28;20223;-91
2020/12/06 12:24:58;;;;;;;11.80;7.23;;;6.10;99.90;;;;;;5011983;28;20183;-91
2020/12/06 12:27:24;;;;;;;9.03;7.20;;;6.10;99.90;;;;;;4957065;28;20239;-94
2020/12/06 12:29:49;;;;;;;8.07;5.90;;;6.00;99.90;;;;;;4971897;28;20224;-90
2020/12/06 12:32:15;;;;;;;9.37;6.73;;;6.00;99.90;;;;;;4951179;28;20223;-92
2020/12/06 12:34:41;;;;;;;11.23;7.73;;;5.90;99.90;;;;;;4947339;28;20283;-94
2020/12/06 12:37:08;;;;;;;6.70;4.73;;;5.90;99.90;;;;;;4982765;28;20223;-91
2020/12/06 12:39:34;;;;;;;11.20;5.93;;;5.90;99.90;;;;;;4985179;28;20192;-93
2020/12/06 12:41:59;;;;;;;9.80;6.57;;;5.80;99.90;;;;;;4971105;28;20227;-92
2020/12/06 12:44:27;;;;;;;11.17;6.57;;;5.80;99.90;;;;;;4988127;28;20238;-95
2020/12/06 12:46:57;;;;;;;7.67;6.87;;;5.80;99.90;;;;;;4986493;28;20314;-93
2020/12/06 12:49:24;;;;;;;13.50;6.67;;;5.90;99.90;;;;;;4985737;28;20232;-92
2020/12/06 12:51:55;;;;;;;12.67;6.93;;;5.90;99.90;;;;;;4964597;28;20192;-93
2020/12/06 12:54:21;;;;;;;9.33;5.87;;;5.90;99.90;;;;;;5004648;28;20652;-92